Time;durP1;ratioP1;P1;durP2;ratioP2;P2;SDS_P1;SDS_P2;PMS_P1;PMS_P2;Temp;Humidity;BMP_temperature;BMP_pressure;BME280_temperature;BME280_humidity;BME280_pressure;Samples;Min_cycle;Max_cycle;Signal;HPM_P1;HPM_P2
2024/01/26 00:00:36;;;;;;;3.90;1.60;;;;;;;2.39;96.69;97039.09;108864;1273;22514;-79
2024/01/26 00:03:29;;;;;;;4.80;2.10;;;;;;;2.42;96.33;97051.69;108705;1273;141009;-80
2024/01/26 00:06:04;;;;;;;4.40;1.60;;;;;;;2.45;96.38;97040.25;108870;1249;22535;-80
2024/01/26 00:08:37;;;;;;;4.20;1.90;;;;;;;2.47;96.38;97050.81;108818;1272;25342;-80
2024/01/26 00:11:13;;;;;;;9.00;2.20;;;;;;;2.48;96.33;97042.55;108947;1269;22524;-80
2024/01/26 00:13:47;;;;;;;3.70;1.60;;;;;;;2.51;96.24;97034.15;108979;1273;24305;-80
2024/01/26 00:16:20;;;;;;;7.20;2.90;;;;;;;2.50;96.25;97039.79;108970;1272;22529;-80
2024/01/26 00:18:53;;;;;;;6.60;2.40;;;;;;;2.51;96.06;97041.80;108958;1272;23495;-80
2024/01/26 00:21:29;;;;;;;7.30;2.30;;;;;;;2.51;96.02;97042.16;108909;1267;24276;-80
2024/01/26 00:24:05;;;;;;;7.10;2.70;;;;;;;2.52;95.89;97050.35;108964;1273;22536;-80
2024/01/26 00:26:38;;;;;;;5.50;2.40;;;;;;;2.54;95.81;97046.61;108981;1266;22535;-80
2024/01/26 00:29:09;;;;;;;8.40;2.50;;;;;;;2.54;95.75;97056.89;109005;1266;23772;-81
2024/01/26 00:31:47;;;;;;;9.20;2.70;;;;;;;2.54;95.71;97054.63;108982;1273;22523;-81
2024/01/26 00:34:22;;;;;;;10.40;2.80;;;;;;;2.54;95.47;97060.42;108935;1273;23683;-81
2024/01/26 00:36:59;;;;;;;8.20;2.90;;;;;;;2.53;95.55;97055.39;109012;1271;22518;-80
2024/01/26 00:39:33;;;;;;;7.30;2.40;;;;;;;2.52;95.51;97061.86;109006;1273;22845;-81
2024/01/26 00:42:05;;;;;;;5.40;2.90;;;;;;;2.52;95.47;97050.92;108983;1267;22628;-80
2024/01/26 00:44:41;;;;;;;9.80;3.50;;;;;;;2.50;95.51;97066.80;109009;1273;22520;-81
2024/01/26 00:47:14;;;;;;;6.40;2.10;;;;;;;2.50;95.49;97062.33;108957;1273;25952;-80
2024/01/26 00:49:45;;;;;;;6.50;2.10;;;;;;;2.48;95.34;97067.88;108978;1259;23427;-81
2024/01/26 00:52:16;;;;;;;7.00;2.40;;;;;;;2.45;95.41;97073.70;109000;1273;22630;-79
2024/01/26 00:54:50;;;;;;;5.10;1.80;;;;;;;2.42;95.40;97072.41;109092;1273;22478;-80
2024/01/26 00:57:21;;;;;;;6.50;2.00;;;;;;;2.38;95.37;97076.80;109058;1270;22514;-80
2024/01/26 00:59:53;;;;;;;3.70;1.70;;;;;;;2.35;95.32;97076.80;109005;1273;22523;-79
2024/01/26 01:02:24;;;;;;;7.10;2.50;;;;;;;2.30;95.32;97078.45;108858;1273;24425;-80
2024/01/26 01:05:00;;;;;;;4.60;2.00;;;;;;;2.29;95.48;97083.06;108885;1272;22568;-80
2024/01/26 01:07:34;;;;;;;6.20;2.80;;;;;;;2.29;95.66;97086.67;108889;1272;22533;-80
2024/01/26 01:10:06;;;;;;;7.50;2.60;;;;;;;2.27;95.81;97084.20;108872;1269;25552;-80
2024/01/26 01:12:41;;;;;;;6.10;1.60;;;;;;;2.22;95.92;97080.48;108924;1265;22620;-80
2024/01/26 01:15:14;;;;;;;7.60;2.90;;;;;;;2.19;96.05;97078.14;108939;1272;22527;-80
2024/01/26 01:17:46;;;;;;;6.50;2.40;;;;;;;2.16;96.10;97085.09;108905;1273;25408;-80
2024/01/26 01:20:20;;;;;;;4.60;1.80;;;;;;;2.15;96.13;97071.73;108875;1269;22537;-80
2024/01/26 01:22:51;;;;;;;7.40;2.10;;;;;;;2.10;96.51;97077.33;108880;1266;25223;-80
2024/01/26 01:25:22;;;;;;;5.40;2.00;;;;;;;2.05;96.81;97090.51;108930;1272;25428;-80
2024/01/26 01:27:54;;;;;;;3.60;1.90;;;;;;;2.04;96.84;97085.85;108877;1272;22523;-80
2024/01/26 01:30:25;;;;;;;3.20;1.70;;;;;;;2.03;96.95;97077.94;108883;1272;24210;-80
2024/01/26 01:32:58;;;;;;;2.00;1.20;;;;;;;2.01;97.03;97082.90;108861;1269;23886;-80
2024/01/26 01:35:30;;;;;;;4.20;2.10;;;;;;;1.94;97.38;97081.77;108836;1273;22518;-80
2024/01/26 01:38:06;;;;;;;6.70;2.20;;;;;;;1.89;97.51;97094.09;108841;1273;25288;-80
2024/01/26 01:40:37;;;;;;;3.60;1.40;;;;;;;1.84;97.45;97106.67;108881;1272;22536;-79
2024/01/26 01:43:10;;;;;;;3.20;1.90;;;;;;;1.80;97.56;97102.61;108905;1273;22524;-79
2024/01/26 01:45:41;;;;;;;3.10;1.20;;;;;;;1.73;97.69;97102.30;108854;1270;22525;-79
2024/01/26 01:48:16;;;;;;;6.60;1.70;;;;;;;1.66;97.79;97109.57;108885;1268;24190;-79
2024/01/26 01:50:49;;;;;;;4.10;1.40;;;;;;;1.61;97.82;97104.65;108851;1273;22522;-79
2024/01/26 01:53:26;;;;;;;1.70;1.10;;;;;;;1.58;97.71;97109.27;108839;1273;22520;-78
2024/01/26 01:56:05;;;;;;;4.60;1.60;;;;;;;1.57;97.59;97108.52;108858;1266;25421;-79
2024/01/26 01:58:45;;;;;;;3.10;1.20;;;;;;;1.57;97.84;97100.30;108817;1266;25290;-79
2024/01/26 02:01:16;;;;;;;2.40;0.90;;;;;;;1.56;97.93;97101.15;108821;1265;22552;-79
2024/01/26 02:03:51;;;;;;;4.00;1.20;;;;;;;1.54;97.91;97101.77;108892;1266;22533;-79
2024/01/26 02:06:23;;;;;;;4.00;1.60;;;;;;;1.56;97.79;97102.99;108849;1272;24003;-79
2024/01/26 02:08:55;;;;;;;2.90;1.30;;;;;;;1.57;97.87;97105.89;108868;1269;22557;-79
2024/01/26 02:11:34;;;;;;;3.60;1.30;;;;;;;1.60;97.88;97108.08;108854;1273;22511;-79
2024/01/26 02:14:08;;;;;;;2.90;1.20;;;;;;;1.57;97.72;97106.05;108887;1272;22659;-79
2024/01/26 02:16:39;;;;;;;3.80;1.20;;;;;;;1.55;97.68;97104.80;108916;1273;22510;-79
2024/01/26 02:19:15;;;;;;;2.10;1.00;;;;;;;1.52;97.55;97112.17;108907;1272;22564;-79
2024/01/26 02:21:45;;;;;;;2.50;1.00;;;;;;;1.50;97.59;97115.07;108862;1273;25444;-79
2024/01/26 02:24:17;;;;;;;2.70;1.40;;;;;;;1.48;97.41;97116.53;108893;1266;22526;-79
2024/01/26 02:26:50;;;;;;;4.00;1.50;;;;;;;1.33;97.24;97120.45;108885;1273;22618;-79
2024/01/26 02:29:21;;;;;;;3.30;1.10;;;;;;;1.25;97.29;97120.42;108881;1265;22514;-79
2024/01/26 02:31:52;;;;;;;3.80;1.20;;;;;;;1.30;97.80;97112.08;108884;1269;22524;-79
2024/01/26 02:34:25;;;;;;;1.90;1.20;;;;;;;1.32;97.92;97109.13;108894;1266;22524;-79
2024/01/26 02:36:56;;;;;;;4.20;1.30;;;;;;;1.35;98.05;97112.29;108918;1266;25271;-79
2024/01/26 02:39:28;;;;;;;2.60;1.00;;;;;;;1.31;98.08;97115.36;108833;1272;22482;-79
2024/01/26 02:42:01;;;;;;;3.20;1.10;;;;;;;1.24;98.03;97120.16;108907;1272;23753;-79
2024/01/26 02:44:35;;;;;;;1.90;1.00;;;;;;;1.13;98.13;97127.67;108869;1272;24171;-78
2024/01/26 02:47:06;;;;;;;2.10;1.30;;;;;;;1.13;98.23;97124.98;108897;1270;22540;-79
2024/01/26 02:49:43;;;;;;;2.00;1.10;;;;;;;1.19;98.71;97124.44;108852;1273;22540;-79
2024/01/26 02:52:16;;;;;;;3.00;1.00;;;;;;;1.24;98.67;97122.49;108870;1272;22521;-79
2024/01/26 02:54:51;;;;;;;2.70;1.40;;;;;;;1.27;98.69;97126.73;108980;1265;22532;-78
2024/01/26 02:57:25;;;;;;;3.50;1.90;;;;;;;1.31;98.91;97126.10;108947;1251;22529;-79
2024/01/26 03:00:01;;;;;;;2.90;1.50;;;;;;;1.28;98.57;97124.02;108961;1265;22540;-79
2024/01/26 03:02:34;;;;;;;6.00;2.30;;;;;;;1.22;98.95;97124.42;108906;1268;22520;-79
2024/01/26 03:05:08;;;;;;;7.50;2.30;;;;;;;1.22;99.33;97123.74;108815;1255;22673;-79
2024/01/26 03:07:39;;;;;;;3.70;1.70;;;;;;;1.18;99.41;97138.30;108890;1273;25951;-79
2024/01/26 03:10:11;;;;;;;4.30;1.40;;;;;;;1.13;99.30;97128.40;108870;1266;22676;-79
2024/01/26 03:12:44;;;;;;;1.90;1.10;;;;;;;1.11;99.27;97134.94;108862;1272;26864;-79
2024/01/26 03:15:15;;;;;;;2.10;0.60;;;;;;;1.11;99.16;97141.52;108855;1266;22507;-79
2024/01/26 03:17:48;;;;;;;1.10;0.60;;;;;;;1.09;99.25;97142.98;108874;1272;25268;-79
2024/01/26 03:20:30;;;;;;;0.60;0.30;;;;;;;1.13;99.25;97147.20;108839;1266;22516;-79
2024/01/26 03:23:03;;;;;;;1.10;0.40;;;;;;;1.18;99.38;97155.30;108823;1272;24245;-79
2024/01/26 03:25:34;;;;;;;0.40;0.30;;;;;;;1.15;99.28;97158.60;108901;1272;22519;-78
2024/01/26 03:28:06;;;;;;;0.60;0.50;;;;;;;1.08;99.15;97156.52;108902;1269;22547;-79
2024/01/26 03:30:45;;;;;;;1.30;0.50;;;;;;;1.02;98.97;97160.36;108802;1272;22536;-79
2024/01/26 03:33:19;;;;;;;1.20;0.60;;;;;;;1.03;99.20;97159.23;108855;1269;23007;-79
2024/01/26 03:35:50;;;;;;;1.60;1.00;;;;;;;1.06;99.36;97160.34;108895;1272;22529;-79
2024/01/26 03:38:20;;;;;;;1.60;1.00;;;;;;;1.00;98.95;97159.88;108858;1250;23706;-79
2024/01/26 03:40:51;;;;;;;5.50;1.60;;;;;;;0.94;99.12;97164.70;108869;1272;23813;-79
2024/01/26 03:43:22;;;;;;;3.10;1.40;;;;;;;0.91;99.45;97165.15;108873;1273;23834;-79
2024/01/26 03:45:53;;;;;;;6.10;2.00;;;;;;;0.90;99.53;97165.55;108834;1267;24188;-79
2024/01/26 03:48:24;;;;;;;4.50;2.10;;;;;;;0.90;99.68;97163.86;108887;1269;22632;-79
2024/01/26 03:50:55;;;;;;;4.50;2.80;;;;;;;0.91;99.92;97160.58;108836;1272;22514;-79
2024/01/26 03:53:28;;;;;;;4.60;1.70;;;;;;;0.96;99.96;97160.44;108852;1272;22524;-79
2024/01/26 03:56:04;;;;;;;4.00;1.80;;;;;;;1.01;99.97;97158.44;108901;1272;22589;-79
2024/01/26 03:58:40;;;;;;;3.70;1.70;;;;;;;1.05;100.00;97160.84;108816;1272;22650;-79
2024/01/26 04:01:12;;;;;;;6.40;1.90;;;;;;;1.07;100.00;97166.25;108883;1272;22589;-79
2024/01/26 04:03:45;;;;;;;7.30;2.30;;;;;;;1.10;100.00;97164.67;108855;1272;22519;-79
2024/01/26 04:06:18;;;;;;;4.00;2.10;;;;;;;1.12;100.00;97165.46;108892;1270;22626;-79
2024/01/26 04:08:49;;;;;;;7.20;3.00;;;;;;;1.13;100.00;97168.25;108847;1269;22542;-79
2024/01/26 04:11:22;;;;;;;8.60;2.80;;;;;;;1.16;100.00;97172.59;108849;1273;22528;-79
2024/01/26 04:13:55;;;;;;;5.20;2.30;;;;;;;1.17;100.00;97169.80;108837;1272;22524;-79
2024/01/26 04:16:28;;;;;;;7.90;2.30;;;;;;;1.19;100.00;97177.52;108795;1272;22522;-79
2024/01/26 04:19:01;;;;;;;8.10;3.00;;;;;;;1.21;100.00;97184.30;108773;1272;22671;-79
2024/01/26 04:21:32;;;;;;;7.70;2.70;;;;;;;1.24;100.00;97188.94;108840;1272;22525;-79
2024/01/26 04:24:06;;;;;;;8.40;3.30;;;;;;;1.26;100.00;97189.70;108811;1273;22754;-79
2024/01/26 04:26:37;;;;;;;6.40;2.90;;;;;;;1.27;100.00;97197.93;108841;1273;24336;-79
2024/01/26 04:29:09;;;;;;;7.60;3.70;;;;;;;1.28;100.00;97190.74;108858;1272;22669;-79
2024/01/26 04:31:46;;;;;;;8.80;3.50;;;;;;;1.29;100.00;97196.46;108869;1272;24206;-79
2024/01/26 04:34:20;;;;;;;8.50;4.50;;;;;;;1.29;100.00;97209.85;108813;1267;23740;-79
2024/01/26 04:36:54;;;;;;;10.70;3.00;;;;;;;1.31;100.00;97204.17;108881;1272;23470;-79
2024/01/26 04:39:37;;;;;;;9.90;2.80;;;;;;;1.34;100.00;97211.66;108861;1269;22559;-79
2024/01/26 04:42:08;;;;;;;10.30;3.90;;;;;;;1.34;100.00;97213.77;108809;1272;22523;-79
2024/01/26 04:44:41;;;;;;;7.60;3.00;;;;;;;1.36;100.00;97213.67;108878;1272;22646;-79
2024/01/26 04:47:12;;;;;;;7.50;2.50;;;;;;;1.37;100.00;97212.73;108804;1269;22528;-79
2024/01/26 04:49:43;;;;;;;5.60;2.10;;;;;;;1.38;100.00;97221.82;108853;1272;23995;-79
2024/01/26 04:52:15;;;;;;;10.90;4.00;;;;;;;1.40;100.00;97215.83;108883;1272;23231;-79
2024/01/26 04:54:50;;;;;;;10.90;2.90;;;;;;;1.42;100.00;97217.70;108830;1272;24608;-79
2024/01/26 04:57:24;;;;;;;7.80;3.80;;;;;;;1.42;100.00;97217.29;108819;1273;22524;-79
2024/01/26 04:59:57;;;;;;;11.20;3.10;;;;;;;1.44;100.00;97229.25;108873;1273;24221;-79
2024/01/26 05:02:34;;;;;;;5.20;2.70;;;;;;;1.44;100.00;97230.38;108817;1273;22529;-79
2024/01/26 05:05:06;;;;;;;7.90;2.60;;;;;;;1.46;99.99;97226.71;108887;1266;22556;-79
2024/01/26 05:07:37;;;;;;;11.50;3.70;;;;;;;1.44;99.96;97232.91;108902;1272;22560;-79
2024/01/26 05:10:10;;;;;;;7.80;3.50;;;;;;;1.44;99.95;97230.58;108878;1273;22724;-79
2024/01/26 05:12:44;;;;;;;11.80;2.90;;;;;;;1.47;99.90;97229.56;108854;1272;27404;-79
2024/01/26 05:15:17;;;;;;;8.00;2.90;;;;;;;1.49;99.56;97231.73;108814;1272;22537;-79
2024/01/26 05:17:51;;;;;;;8.60;2.30;;;;;;;1.51;99.39;97227.90;108908;1272;22982;-79
2024/01/26 05:20:25;;;;;;;7.10;2.30;;;;;;;1.51;99.23;97231.48;108871;1272;24195;-79
2024/01/26 05:22:59;;;;;;;13.20;3.10;;;;;;;1.51;98.93;97231.32;108816;1256;22543;-79
2024/01/26 05:25:35;;;;;;;5.00;2.30;;;;;;;1.51;98.42;97229.95;108859;1272;22610;-79
2024/01/26 05:28:08;;;;;;;4.70;2.30;;;;;;;1.50;98.20;97237.83;108885;1272;25301;-79
2024/01/26 05:30:42;;;;;;;11.40;3.40;;;;;;;1.52;98.00;97233.96;108834;1272;22955;-79
2024/01/26 05:33:15;;;;;;;8.70;3.10;;;;;;;1.53;97.80;97234.89;108848;1272;22514;-79
2024/01/26 05:35:46;;;;;;;11.70;3.00;;;;;;;1.53;97.21;97238.98;108889;1266;23754;-79
2024/01/26 05:38:19;;;;;;;9.30;3.00;;;;;;;1.53;96.95;97247.55;108900;1273;22546;-79
2024/01/26 05:40:50;;;;;;;10.40;3.40;;;;;;;1.52;96.98;97244.42;108901;1269;22528;-79
2024/01/26 05:43:24;;;;;;;7.40;2.60;;;;;;;1.51;96.82;97251.50;108894;1266;22724;-79
2024/01/26 05:45:59;;;;;;;9.30;3.30;;;;;;;1.51;96.75;97240.16;108950;1269;22526;-79
2024/01/26 05:48:30;;;;;;;8.30;2.60;;;;;;;1.50;96.62;97248.08;108891;1250;22548;-79
2024/01/26 05:51:04;;;;;;;9.60;2.80;;;;;;;1.51;96.62;97250.24;108842;1273;22525;-79
2024/01/26 05:53:35;;;;;;;9.80;3.40;;;;;;;1.52;96.53;97247.02;108920;1272;24298;-79
2024/01/26 05:56:09;;;;;;;9.60;3.10;;;;;;;1.50;96.51;97252.11;108894;1269;22532;-79
2024/01/26 05:58:40;;;;;;;7.00;2.40;;;;;;;1.50;96.43;97259.51;108892;1272;25287;-79
2024/01/26 06:01:16;;;;;;;10.50;2.70;;;;;;;1.52;96.51;97255.02;108891;1272;41235;-79
2024/01/26 06:03:50;;;;;;;5.50;2.50;;;;;;;1.52;96.36;97250.68;108827;1269;23880;-79
2024/01/26 06:06:20;;;;;;;12.40;2.50;;;;;;;1.53;96.11;97246.86;108853;1273;22548;-79
2024/01/26 06:08:52;;;;;;;12.00;3.20;;;;;;;1.51;96.02;97253.46;108860;1272;25421;-79
2024/01/26 06:11:23;;;;;;;8.20;3.00;;;;;;;1.49;96.12;97256.40;108826;1250;22551;-79
2024/01/26 06:13:59;;;;;;;7.80;3.40;;;;;;;1.48;95.87;97259.02;108920;1254;22623;-79
2024/01/26 06:16:32;;;;;;;11.20;2.00;;;;;;;1.47;96.05;97262.20;108867;1249;22722;-79
2024/01/26 06:19:04;;;;;;;9.60;3.90;;;;;;;1.47;95.89;97262.20;108869;1272;22559;-79
2024/01/26 06:21:35;;;;;;;10.00;3.60;;;;;;;1.48;96.10;97263.20;108844;1272;22520;-79
2024/01/26 06:24:09;;;;;;;6.70;3.00;;;;;;;1.47;95.66;97253.67;108887;1269;22525;-79
2024/01/26 06:26:43;;;;;;;6.50;2.50;;;;;;;1.48;95.79;97266.38;108923;1272;22525;-79
2024/01/26 06:29:13;;;;;;;6.20;2.60;;;;;;;1.46;95.68;97270.30;108972;1269;22517;-79
2024/01/26 06:31:44;;;;;;;8.50;3.30;;;;;;;1.46;95.75;97264.66;108941;1272;22588;-79
2024/01/26 06:34:18;;;;;;;9.30;3.00;;;;;;;1.45;95.48;97266.91;108969;1272;22556;-79
2024/01/26 06:36:51;;;;;;;8.20;3.20;;;;;;;1.46;95.55;97276.11;108979;1272;22569;-79
2024/01/26 06:39:23;;;;;;;9.60;2.90;;;;;;;1.49;95.65;97270.55;108993;1272;22549;-79
2024/01/26 06:41:56;;;;;;;7.80;2.90;;;;;;;1.51;95.61;97271.20;108963;1269;23758;-79
2024/01/26 06:44:31;;;;;;;7.90;3.50;;;;;;;1.50;95.45;97269.74;108964;1273;23542;-79
2024/01/26 06:47:03;;;;;;;9.40;3.10;;;;;;;1.51;95.42;97270.48;108953;1265;23895;-79
2024/01/26 06:49:41;;;;;;;9.00;2.60;;;;;;;1.50;95.33;97271.28;108907;1272;22560;-79
2024/01/26 06:52:12;;;;;;;9.40;3.00;;;;;;;1.50;95.10;97268.66;108941;1266;23795;-79
2024/01/26 06:54:45;;;;;;;9.20;3.30;;;;;;;1.49;95.06;97282.38;108983;1272;24237;-79
2024/01/26 06:57:16;;;;;;;7.40;2.60;;;;;;;1.48;95.03;97279.32;108940;1272;22521;-79
2024/01/26 06:59:50;;;;;;;7.10;2.90;;;;;;;1.49;94.98;97277.30;108990;1272;24238;-79
2024/01/26 07:02:23;;;;;;;9.50;2.60;;;;;;;1.52;95.12;97281.67;108952;1272;26276;-79
2024/01/26 07:04:56;;;;;;;9.30;2.90;;;;;;;1.53;95.07;97279.83;108993;1272;25257;-79
2024/01/26 07:07:27;;;;;;;9.50;2.90;;;;;;;1.52;94.85;97283.97;109014;1269;24327;-79
2024/01/26 07:09:58;;;;;;;6.40;2.80;;;;;;;1.52;94.79;97280.84;109014;1270;22723;-79
2024/01/26 07:12:29;;;;;;;11.40;2.90;;;;;;;1.51;94.51;97281.27;109030;1272;22550;-79
2024/01/26 07:15:04;;;;;;;6.00;2.60;;;;;;;1.50;94.62;97276.86;109009;1272;22802;-79
2024/01/26 07:17:37;;;;;;;7.80;2.20;;;;;;;1.49;94.63;97283.05;108861;1273;23679;-79
2024/01/26 07:20:23;;;;;;;7.10;2.50;;;;;;;1.50;94.46;97282.25;108938;1266;24366;-79
2024/01/26 07:22:59;;;;;;;8.10;2.80;;;;;;;1.50;94.47;97286.99;108888;1273;22527;-79
2024/01/26 07:25:33;;;;;;;9.10;2.90;;;;;;;1.50;94.54;97292.66;108834;1273;22924;-79
2024/01/26 07:28:05;;;;;;;7.30;2.70;;;;;;;1.51;94.31;97294.79;108863;1269;23292;-79
2024/01/26 07:30:36;;;;;;;4.70;2.30;;;;;;;1.53;94.34;97299.64;108854;1273;22588;-79
2024/01/26 07:33:10;;;;;;;4.80;2.30;;;;;;;1.53;94.21;97302.27;108881;1266;22524;-79
2024/01/26 07:35:41;;;;;;;6.60;2.70;;;;;;;1.54;93.84;97299.64;108844;1273;22560;-79
2024/01/26 07:38:14;;;;;;;7.70;3.30;;;;;;;1.55;93.92;97300.09;108873;1272;24161;-79
2024/01/26 07:40:45;;;;;;;4.30;1.90;;;;;;;1.55;93.75;97302.34;108858;1272;22521;-79
2024/01/26 07:43:19;;;;;;;7.90;2.70;;;;;;;1.55;93.43;97296.47;108868;1269;24219;-79
2024/01/26 07:45:50;;;;;;;8.50;2.50;;;;;;;1.55;93.27;97298.23;108886;1273;22521;-79
2024/01/26 07:48:21;;;;;;;8.10;2.10;;;;;;;1.54;93.11;97297.23;108872;1273;22530;-79
2024/01/26 07:50:56;;;;;;;10.50;3.00;;;;;;;1.53;92.92;97294.73;108890;1273;22530;-79
2024/01/26 07:53:27;;;;;;;6.20;2.60;;;;;;;1.54;92.90;97301.77;108870;1273;22553;-79
2024/01/26 07:55:59;;;;;;;5.80;2.30;;;;;;;1.54;92.84;97306.77;108864;1272;22630;-79
2024/01/26 07:58:31;;;;;;;8.70;2.30;;;;;;;1.55;92.58;97296.95;108913;1272;22797;-79
2024/01/26 08:01:05;;;;;;;6.40;2.90;;;;;;;1.55;92.51;97304.95;108812;1269;23763;-79
2024/01/26 08:03:37;;;;;;;5.80;2.30;;;;;;;1.55;92.31;97304.57;108895;1272;25246;-79
2024/01/26 08:06:10;;;;;;;5.60;2.40;;;;;;;1.57;92.08;97307.86;108870;1272;22918;-79
2024/01/26 08:08:43;;;;;;;7.60;2.80;;;;;;;1.59;91.92;97304.39;108900;1256;22651;-79
2024/01/26 08:11:22;;;;;;;5.80;2.10;;;;;;;1.61;91.65;97306.76;108870;1269;22627;-79
2024/01/26 08:13:53;;;;;;;4.50;2.10;;;;;;;1.64;91.54;97306.86;108904;1272;22569;-79
2024/01/26 08:16:29;;;;;;;5.70;2.20;;;;;;;1.64;91.21;97310.48;108847;1272;23734;-79
2024/01/26 08:19:00;;;;;;;7.20;2.50;;;;;;;1.67;91.18;97313.29;108852;1269;25239;-79
2024/01/26 08:21:31;;;;;;;8.30;2.60;;;;;;;1.66;90.55;97310.92;108848;1269;22673;-79
2024/01/26 08:24:06;;;;;;;6.50;2.70;;;;;;;1.62;90.51;97320.80;108889;1269;22568;-80
2024/01/26 08:26:37;;;;;;;9.70;3.00;;;;;;;1.58;90.51;97319.48;108879;1272;22524;-80
2024/01/26 08:29:10;;;;;;;7.10;2.50;;;;;;;1.49;90.82;97331.21;108885;1270;26016;-79
2024/01/26 08:31:41;;;;;;;2.90;1.30;;;;;;;1.39;91.16;97332.39;108903;1272;22570;-79
2024/01/26 08:34:15;;;;;;;6.10;2.10;;;;;;;1.30;91.32;97333.20;108913;1266;22573;-79
2024/01/26 08:36:46;;;;;;;4.30;1.80;;;;;;;1.23;91.63;97330.13;108938;1256;22539;-79
2024/01/26 08:39:20;;;;;;;4.70;2.50;;;;;;;1.18;92.30;97335.09;108853;1273;22582;-79
2024/01/26 08:41:52;;;;;;;6.90;2.80;;;;;;;1.15;92.92;97338.42;108864;1267;22525;-79
2024/01/26 08:44:26;;;;;;;6.70;2.70;;;;;;;1.19;93.49;97333.16;108902;1272;22527;-79
2024/01/26 08:47:01;;;;;;;6.90;2.60;;;;;;;1.25;93.36;97328.57;108934;1272;22521;-79
2024/01/26 08:49:32;;;;;;;6.50;2.60;;;;;;;1.31;93.40;97324.52;108847;1270;22484;-79
2024/01/26 08:52:04;;;;;;;5.80;2.30;;;;;;;1.39;93.50;97327.08;108870;1269;22977;-79
2024/01/26 08:54:39;;;;;;;11.10;3.80;;;;;;;1.44;93.30;97333.44;108942;1266;22647;-79
2024/01/26 08:57:11;;;;;;;4.60;1.90;;;;;;;1.48;93.14;97339.98;108906;1273;24217;-79
2024/01/26 08:59:47;;;;;;;5.80;2.40;;;;;;;1.46;92.77;97343.40;108900;1272;22520;-79
2024/01/26 09:02:21;;;;;;;5.40;1.90;;;;;;;1.39;92.74;97347.22;108845;1273;22612;-80
2024/01/26 09:04:53;;;;;;;5.60;2.40;;;;;;;1.29;92.77;97346.73;108866;1272;24195;-80
2024/01/26 09:07:26;;;;;;;7.10;3.10;;;;;;;1.20;93.15;97353.48;108889;1273;22567;-80
2024/01/26 09:09:57;;;;;;;7.20;2.70;;;;;;;1.19;93.40;97354.85;108960;1272;22574;-80
2024/01/26 09:12:28;;;;;;;4.60;2.50;;;;;;;1.24;93.91;97357.38;108970;1272;24005;-80
2024/01/26 09:15:01;;;;;;;8.40;3.10;;;;;;;1.29;94.06;97358.04;108996;1272;25415;-80
2024/01/26 09:17:35;;;;;;;5.40;2.80;;;;;;;1.33;94.14;97358.75;108841;1273;23638;-81
2024/01/26 09:20:09;;;;;;;5.50;2.40;;;;;;;1.38;94.11;97352.15;108907;1272;22661;-81
2024/01/26 09:22:43;;;;;;;4.60;2.50;;;;;;;1.46;94.24;97344.48;108933;1272;25726;-80
2024/01/26 09:25:14;;;;;;;8.00;2.90;;;;;;;1.56;94.15;97347.65;108890;1272;22513;-81
2024/01/26 09:27:48;;;;;;;6.40;3.30;;;;;;;1.62;94.03;97342.25;108881;1270;22529;-81
2024/01/26 09:30:22;;;;;;;5.60;1.80;;;;;;;1.71;93.90;97341.48;108878;1272;25157;-81
2024/01/26 09:32:54;;;;;;;3.60;1.90;;;;;;;1.76;93.67;97337.02;108879;1272;25258;-81
2024/01/26 09:35:25;;;;;;;5.30;1.60;;;;;;;1.75;93.41;97336.57;108891;1269;25466;-80
2024/01/26 09:37:58;;;;;;;6.60;3.20;;;;;;;1.75;92.94;97341.64;108855;1272;23811;-81
2024/01/26 09:40:32;;;;;;;5.40;2.70;;;;;;;1.78;92.84;97339.89;108889;1272;22544;-81
2024/01/26 09:43:06;;;;;;;7.00;2.50;;;;;;;1.83;92.64;97331.77;108858;1269;22542;-80
2024/01/26 09:45:43;;;;;;;9.50;3.40;;;;;;;1.93;92.95;97324.09;108866;1273;22511;-80
2024/01/26 09:48:15;;;;;;;5.70;1.90;;;;;;;1.99;92.93;97319.42;108925;1269;22540;-80
2024/01/26 09:50:52;;;;;;;5.70;2.10;;;;;;;1.99;92.68;97318.86;108849;1272;25421;-79
2024/01/26 09:53:29;;;;;;;6.90;2.10;;;;;;;1.99;92.52;97324.48;108920;1272;22535;-80
2024/01/26 09:56:03;;;;;;;7.30;2.10;;;;;;;1.99;92.38;97326.06;108910;1269;22537;-79
2024/01/26 09:58:37;;;;;;;7.50;2.20;;;;;;;1.95;92.44;97327.98;108929;1273;22529;-80
2024/01/26 10:01:11;;;;;;;3.20;1.60;;;;;;;1.93;92.33;97323.36;108888;1272;22524;-79
2024/01/26 10:03:45;;;;;;;5.20;1.70;;;;;;;1.89;92.10;97325.52;108983;1269;22722;-80
2024/01/26 10:06:18;;;;;;;11.40;2.20;;;;;;;1.86;91.80;97318.65;108898;1273;22543;-80
2024/01/26 10:08:50;;;;;;;5.00;2.10;;;;;;;1.84;91.69;97318.58;108852;1273;22511;-80
2024/01/26 10:11:25;;;;;;;7.30;2.60;;;;;;;1.82;91.60;97319.69;108880;1272;22572;-80
2024/01/26 10:13:56;;;;;;;7.40;2.50;;;;;;;1.83;91.57;97310.24;108885;1271;25377;-80
2024/01/26 10:16:27;;;;;;;6.60;2.10;;;;;;;1.85;91.51;97306.19;108870;1273;24196;-80
2024/01/26 10:19:00;;;;;;;5.60;2.70;;;;;;;1.87;91.60;97307.71;108862;1272;22541;-80
2024/01/26 10:21:36;;;;;;;5.50;2.90;;;;;;;1.88;91.60;97309.15;108876;1273;25523;-80
2024/01/26 10:24:08;;;;;;;7.80;2.80;;;;;;;1.87;91.48;97308.72;108858;1270;23906;-80
2024/01/26 10:26:39;;;;;;;7.90;2.70;;;;;;;1.86;91.64;97312.29;108923;1272;22525;-80
2024/01/26 10:29:12;;;;;;;3.60;2.00;;;;;;;1.85;91.43;97307.80;108875;1273;25294;-80
2024/01/26 10:31:47;;;;;;;5.30;2.50;;;;;;;1.79;91.27;97304.81;108852;1273;22660;-80
2024/01/26 10:34:19;;;;;;;5.00;2.60;;;;;;;1.78;91.57;97294.48;108892;1272;22542;-80
2024/01/26 10:36:51;;;;;;;4.60;2.80;;;;;;;1.82;91.62;97295.97;108901;1273;23028;-80
2024/01/26 10:39:29;;;;;;;5.10;3.10;;;;;;;1.84;91.54;97291.31;108882;1273;23918;-80
2024/01/26 10:42:04;;;;;;;8.60;3.30;;;;;;;1.86;91.68;97285.91;108817;1273;22693;-80
2024/01/26 10:44:39;;;;;;;7.60;3.30;;;;;;;1.93;91.92;97280.45;108906;1273;24134;-80
2024/01/26 10:47:12;;;;;;;6.30;2.90;;;;;;;2.02;91.94;97274.75;108858;1269;22544;-80
2024/01/26 10:49:49;;;;;;;8.40;3.10;;;;;;;2.07;91.89;97278.42;108914;1269;22517;-80
2024/01/26 10:52:23;;;;;;;5.80;2.90;;;;;;;2.11;91.91;97273.15;108916;1267;25511;-80
2024/01/26 10:54:55;;;;;;;5.60;2.50;;;;;;;2.09;91.53;97269.28;108898;1273;22547;-78
2024/01/26 10:57:28;;;;;;;7.70;2.60;;;;;;;2.06;91.52;97265.75;108916;1273;22540;-78
2024/01/26 11:00:04;;;;;;;5.70;2.40;;;;;;;2.07;91.61;97265.35;108879;1273;22527;-78
2024/01/26 11:02:37;;;;;;;6.50;3.10;;;;;;;2.10;91.80;97261.67;108898;1273;28840;-78
2024/01/26 11:05:11;;;;;;;7.20;2.90;;;;;;;2.16;91.87;97261.89;108855;1272;24838;-78
2024/01/26 11:07:48;;;;;;;5.90;3.60;;;;;;;2.19;91.68;97264.61;108933;1273;22536;-78
2024/01/26 11:10:29;;;;;;;8.60;3.20;;;;;;;2.18;91.75;97263.30;108854;1271;24211;-78
2024/01/26 11:13:06;;;;;;;5.40;3.30;;;;;;;2.14;91.57;97265.49;108934;1267;25260;-78
2024/01/26 11:15:40;;;;;;;7.30;2.70;;;;;;;2.09;91.53;97264.73;108924;1267;22516;-78
2024/01/26 11:18:25;;;;;;;8.60;3.40;;;;;;;2.00;91.63;97259.27;108826;1273;22486;-78
2024/01/26 11:21:02;;;;;;;9.10;2.80;;;;;;;2.02;91.89;97251.17;108913;1270;23975;-78
2024/01/26 11:23:41;;;;;;;9.70;3.50;;;;;;;2.06;92.02;97248.54;108956;1267;22532;-78
2024/01/26 11:26:18;;;;;;;10.00;3.70;;;;;;;2.09;92.08;97243.05;108890;1272;22565;-78
2024/01/26 11:28:50;;;;;;;4.50;2.40;;;;;;;2.10;92.03;97241.02;108879;1267;22526;-78
2024/01/26 11:31:30;;;;;;;5.60;2.60;;;;;;;2.11;92.19;97235.47;108922;1272;24365;-78
2024/01/26 11:34:04;;;;;;;7.40;2.50;;;;;;;2.15;92.20;97233.20;108908;1267;22903;-78
2024/01/26 11:36:40;;;;;;;9.00;3.40;;;;;;;2.16;92.21;97224.23;108934;1272;22521;-78
2024/01/26 11:39:14;;;;;;;8.60;3.90;;;;;;;2.16;92.36;97220.02;108889;1273;22532;-78
2024/01/26 11:41:46;;;;;;;8.20;2.90;;;;;;;2.17;92.36;97218.59;108954;1266;25433;-78
2024/01/26 11:44:28;;;;;;;6.50;2.70;;;;;;;2.17;92.37;97217.94;108970;1267;22536;-78
2024/01/26 11:46:59;;;;;;;8.50;3.50;;;;;;;2.19;92.35;97216.77;108918;1270;22613;-78
2024/01/26 11:49:35;;;;;;;8.50;3.80;;;;;;;2.24;92.55;97210.71;108915;1267;23824;-78
2024/01/26 11:52:09;;;;;;;8.60;4.20;;;;;;;2.24;92.44;97206.44;108847;1273;24209;-78
2024/01/26 11:54:43;;;;;;;9.20;4.20;;;;;;;2.26;92.48;97204.95;108901;1273;22526;-78
2024/01/26 11:57:15;;;;;;;7.60;3.90;;;;;;;2.29;92.51;97203.71;108894;1273;22618;-77
2024/01/26 11:59:48;;;;;;;11.60;5.10;;;;;;;2.28;92.42;97199.54;108835;1270;22624;-78